createdAt,value
2023-04-18T00:01:34.611Z,5.68
2023-04-18T00:03:38.161Z,5.20
2023-04-18T00:05:40.248Z,5.28
2023-04-18T00:07:45.175Z,5.40
2023-04-18T00:09:47.166Z,5.60
2023-04-18T00:11:48.698Z,5.07
2023-04-18T00:13:53.145Z,5.70
2023-04-18T00:15:55.153Z,5.10
2023-04-18T00:17:57.037Z,5.72
2023-04-18T00:19:59.004Z,6.20
2023-04-18T00:22:00.492Z,5.18
2023-04-18T00:24:02.025Z,5.25
2023-04-18T00:26:03.695Z,5.25
2023-04-18T00:28:05.301Z,4.90
2023-04-18T00:30:09.110Z,5.47
2023-04-18T00:32:12.509Z,5.07
2023-04-18T00:34:14.227Z,5.32
2023-04-18T00:36:16.164Z,4.75
2023-04-18T00:38:17.713Z,4.80
2023-04-18T00:40:19.507Z,4.80
2023-04-18T00:42:21.985Z,4.80
2023-04-18T00:44:26.562Z,4.85
2023-04-18T00:46:28.083Z,4.40
2023-04-18T00:48:30.695Z,5.13
2023-04-18T00:50:32.387Z,4.85
2023-04-18T00:52:35.808Z,4.47
2023-04-18T00:54:37.826Z,4.80
2023-04-18T00:56:39.757Z,4.45
2023-04-18T00:58:47.233Z,5.40
2023-04-18T01:00:48.776Z,4.95
2023-04-18T01:02:53.214Z,4.72
2023-04-18T01:04:54.874Z,5.00
2023-04-18T01:06:56.959Z,4.72
2023-04-18T01:08:58.468Z,4.85
2023-04-18T01:11:00.208Z,4.78
2023-04-18T01:13:22.518Z,4.85
2023-04-18T01:15:24.090Z,4.45
2023-04-18T01:17:28.415Z,4.70
2023-04-18T01:19:30.002Z,4.85
2023-04-18T01:21:36.053Z,4.82
2023-04-18T01:23:37.550Z,4.57
2023-04-18T01:25:40.642Z,4.70
2023-04-18T01:27:42.148Z,5.10
2023-04-18T01:29:43.801Z,5.05
2023-04-18T01:31:45.625Z,5.00
2023-04-18T01:33:49.956Z,5.10
2023-04-18T01:35:52.326Z,5.43
2023-04-18T01:37:54.093Z,4.70
2023-04-18T01:39:55.551Z,5.00
2023-04-18T01:41:57.089Z,4.95
2023-04-18T01:43:59.367Z,4.93
2023-04-18T01:46:01.064Z,4.72
2023-04-18T01:48:02.903Z,5.20
2023-04-18T01:50:05.635Z,4.22
2023-04-18T01:52:09.848Z,4.95
2023-04-18T01:54:11.497Z,4.88
2023-04-18T01:56:13.396Z,5.35
2023-04-18T01:58:16.206Z,5.13
2023-04-18T02:00:18.238Z,4.80
2023-04-18T02:02:20.028Z,5.65
2023-04-18T02:04:21.714Z,4.88
2023-04-18T02:06:23.243Z,4.80
2023-04-18T02:08:24.912Z,5.00
2023-04-18T02:10:26.401Z,5.18
2023-04-18T02:12:31.586Z,4.90
2023-04-18T02:14:37.226Z,4.85
2023-04-18T02:16:39.074Z,4.57
2023-04-18T02:18:43.231Z,4.50
2023-04-18T02:20:47.463Z,4.60
2023-04-18T02:22:48.955Z,4.75
2023-04-18T02:24:51.372Z,5.05
2023-04-18T02:26:52.819Z,4.82
2023-04-18T02:28:56.520Z,4.85
2023-04-18T02:30:59.968Z,4.72
2023-04-18T02:33:01.564Z,4.28
2023-04-18T02:35:06.317Z,4.60
2023-04-18T02:37:07.800Z,4.40
2023-04-18T02:39:12.307Z,4.60
2023-04-18T02:41:17.539Z,5.20
2023-04-18T02:43:19.183Z,4.35
2023-04-18T02:45:23.126Z,4.53
2023-04-18T02:47:27.435Z,4.20
2023-04-18T02:49:29.171Z,4.20
2023-04-18T02:51:30.733Z,4.10
2023-04-18T02:53:33.897Z,4.20
2023-04-18T02:55:35.544Z,4.10
2023-04-18T02:57:40.101Z,4.28
2023-04-18T03:00:10.828Z,4.70
2023-04-18T03:02:15.383Z,4.20
2023-04-18T03:04:25.385Z,4.93
2023-04-18T03:06:32.234Z,4.28
2023-04-18T03:08:36.254Z,4.57
2023-04-18T03:10:38.378Z,4.90
2023-04-18T03:12:40.287Z,4.85
2023-04-18T03:14:44.574Z,4.68
2023-04-18T03:16:48.178Z,5.57
2023-04-18T03:18:53.786Z,4.95
2023-04-18T03:20:57.239Z,4.65
2023-04-18T03:22:59.737Z,5.20
2023-04-18T03:25:04.846Z,5.10
2023-04-18T03:27:19.289Z,5.10
2023-04-18T03:29:21.965Z,5.30
2023-04-18T03:31:23.695Z,5.90
2023-04-18T03:33:28.079Z,5.88
2023-04-18T03:35:39.233Z,5.95
2023-04-18T03:37:41.791Z,5.95
2023-04-18T03:39:44.438Z,5.60
2023-04-18T03:41:46.156Z,6.10
2023-04-18T03:43:51.426Z,5.78
2023-04-18T03:45:52.992Z,5.28
2023-04-18T03:47:57.981Z,5.80
2023-04-18T03:50:00.182Z,5.55
2023-04-18T03:52:02.142Z,5.30
2023-04-18T03:54:03.733Z,5.53
2023-04-18T03:56:05.572Z,5.80
2023-04-18T03:58:23.706Z,5.53
2023-04-18T04:00:29.118Z,5.95
2023-04-18T04:02:36.855Z,6.15
2023-04-18T04:04:38.578Z,6.30
2023-04-18T04:06:40.425Z,5.82
2023-04-18T04:08:42.046Z,5.63
2023-04-18T04:10:46.622Z,5.97
2023-04-18T04:12:50.656Z,6.05
2023-04-18T04:14:53.287Z,6.00
2023-04-18T04:17:04.284Z,6.07
2023-04-18T04:19:06.619Z,5.97
2023-04-18T04:21:14.626Z,6.10
2023-04-18T04:23:25.557Z,6.25
2023-04-18T04:25:30.898Z,5.95
2023-04-18T04:27:41.357Z,6.15
2023-04-18T04:29:44.297Z,5.78
2023-04-18T04:31:47.708Z,5.45
2023-04-18T04:33:56.428Z,5.05
2023-04-18T04:36:00.047Z,6.15
2023-04-18T04:38:02.916Z,6.05
2023-04-18T04:40:12.537Z,6.13
2023-04-18T04:42:41.087Z,6.15
2023-04-18T04:44:48.955Z,5.85
2023-04-18T04:46:52.243Z,5.78
2023-04-18T04:48:57.629Z,5.85
2023-04-18T04:51:01.476Z,5.65
2023-04-18T04:53:03.121Z,5.20
2023-04-18T04:55:05.013Z,6.07
2023-04-18T04:57:06.778Z,5.53
2023-04-18T04:59:08.299Z,5.85
2023-04-18T05:01:14.362Z,5.90
2023-04-18T05:03:16.280Z,5.85
2023-04-18T05:05:17.996Z,5.50
2023-04-18T05:07:19.642Z,6.18
2023-04-18T05:09:23.219Z,5.07
2023-04-18T05:11:30.879Z,5.38
2023-04-18T05:13:32.428Z,5.50
2023-04-18T05:15:36.205Z,5.38
2023-04-18T05:17:37.925Z,5.40
2023-04-18T05:19:40.121Z,5.63
2023-04-18T05:21:41.739Z,5.30
2023-04-18T05:23:43.203Z,6.28
2023-04-18T05:25:44.801Z,5.80
2023-04-18T05:27:46.907Z,4.93
2023-04-18T05:29:50.211Z,6.35
2023-04-18T05:31:51.727Z,6.00
2023-04-18T05:33:53.178Z,6.63
2023-04-18T05:35:55.570Z,6.32
2023-04-18T05:37:58.111Z,6.28
2023-04-18T05:40:00.714Z,6.35
2023-04-18T05:42:03.292Z,6.82
2023-04-18T05:44:07.755Z,6.85
2023-04-18T05:46:09.484Z,7.20
2023-04-18T05:48:11.394Z,6.75
2023-04-18T05:50:12.878Z,6.20
2023-04-18T05:52:14.518Z,6.13
2023-04-18T05:54:16.786Z,7.00
2023-04-18T05:56:18.321Z,5.95
2023-04-18T05:58:19.793Z,6.85
2023-04-18T06:00:21.324Z,6.45
2023-04-18T06:02:25.875Z,6.05
2023-04-18T06:04:27.707Z,6.78
2023-04-18T06:06:29.423Z,6.63
2023-04-18T06:08:30.905Z,6.70
2023-04-18T06:10:32.373Z,6.97
2023-04-18T06:12:34.173Z,7.30
2023-04-18T06:14:35.740Z,7.38
2023-04-18T06:16:40.036Z,7.32
2023-04-18T06:18:41.530Z,6.63
2023-04-18T06:20:46.282Z,7.22
2023-04-18T06:22:47.725Z,7.10
2023-04-18T06:24:49.238Z,7.28
2023-04-18T06:26:55.194Z,6.72
2023-04-18T06:28:56.705Z,6.70
2023-04-18T06:31:10.377Z,7.00
2023-04-18T06:33:11.906Z,7.00
2023-04-18T06:35:13.784Z,6.80
2023-04-18T06:37:15.223Z,6.53
2023-04-18T06:39:25.605Z,6.95
2023-04-18T06:41:27.042Z,6.53
2023-04-18T06:43:28.549Z,6.15
2023-04-18T06:45:31.243Z,6.20
2023-04-18T06:47:32.985Z,5.93
2023-04-18T06:49:34.514Z,5.95
2023-04-18T06:51:36.080Z,6.10
2023-04-18T06:53:37.557Z,5.45
2023-04-18T06:55:39.069Z,5.10
2023-04-18T06:57:42.083Z,5.00
2023-04-18T06:59:43.633Z,5.40
2023-04-18T07:01:45.530Z,4.93
2023-04-18T07:03:47.230Z,5.20
2023-04-18T07:05:50.328Z,5.38
2023-04-18T07:07:51.801Z,4.85
2023-04-18T07:09:53.931Z,4.60
2023-04-18T07:11:55.850Z,4.90
2023-04-18T07:13:57.539Z,5.15
2023-04-18T07:15:59.434Z,4.63
2023-04-18T07:18:01.112Z,4.40
2023-04-18T07:20:05.738Z,4.70
2023-04-18T07:22:07.418Z,4.30
2023-04-18T07:24:09.423Z,4.57
2023-04-18T07:26:13.309Z,4.50
2023-04-18T07:28:16.053Z,4.32
2023-04-18T07:30:17.600Z,4.43
2023-04-18T07:32:21.939Z,4.13
2023-04-18T07:34:23.748Z,3.75
2023-04-18T07:36:26.439Z,4.22
2023-04-18T07:38:28.533Z,4.68
2023-04-18T07:40:30.078Z,4.20
2023-04-18T07:42:31.560Z,4.05
2023-04-18T07:44:35.165Z,3.97
2023-04-18T07:46:36.665Z,3.95
2023-04-18T07:48:38.176Z,3.50
2023-04-18T07:50:39.736Z,4.18
2023-04-18T07:52:47.623Z,3.95
2023-04-18T07:54:49.514Z,4.22
2023-04-18T07:56:50.992Z,4.50
2023-04-18T07:58:53.043Z,4.18
2023-04-18T08:00:54.864Z,4.40
2023-04-18T08:02:56.594Z,4.80
2023-04-18T08:04:58.558Z,4.45
2023-04-18T08:07:00.317Z,5.13
2023-04-18T08:09:05.506Z,4.45
2023-04-18T08:11:07.178Z,4.15
2023-04-18T08:13:09.904Z,4.63
2023-04-18T08:15:11.890Z,4.72
2023-04-18T08:17:13.502Z,4.25
2023-04-18T08:19:15.379Z,4.50
2023-04-18T08:21:20.388Z,4.60
2023-04-18T08:23:22.030Z,4.30
2023-04-18T08:25:23.810Z,4.40
2023-04-18T08:27:25.673Z,4.20
2023-04-18T08:29:27.301Z,4.75
2023-04-18T08:31:31.700Z,4.57
2023-04-18T08:33:33.389Z,4.55
2023-04-18T08:35:35.427Z,4.40
2023-04-18T08:37:36.899Z,4.15
2023-04-18T08:39:38.407Z,4.30
2023-04-18T08:41:45.920Z,3.72
2023-04-18T08:43:48.868Z,3.90
2023-04-18T08:45:50.844Z,3.78
2023-04-18T08:47:52.576Z,4.00
2023-04-18T08:49:55.396Z,3.83
2023-04-18T08:52:01.142Z,3.65
2023-04-18T08:54:06.164Z,3.75
2023-04-18T08:56:10.301Z,4.00
2023-04-18T08:58:12.697Z,3.50
2023-04-18T09:00:16.541Z,3.67
2023-04-18T09:02:19.447Z,3.22
2023-04-18T09:04:43.177Z,3.65
2023-04-18T09:06:53.595Z,4.03
2023-04-18T09:09:00.258Z,5.03
2023-04-18T09:11:21.115Z,4.70
2023-04-18T09:13:38.849Z,5.25
2023-04-18T09:15:40.848Z,5.50
2023-04-18T09:17:51.286Z,4.93
2023-04-18T09:19:54.569Z,4.82
2023-04-18T09:22:00.921Z,4.18
2023-04-18T09:24:21.134Z,4.55
2023-04-18T09:26:34.755Z,4.20
2023-04-18T09:28:41.357Z,3.90
2023-04-18T09:30:43.091Z,4.15
2023-04-18T09:32:56.754Z,4.40
2023-04-18T09:35:05.422Z,4.15
2023-04-18T09:37:08.335Z,3.90
2023-04-18T09:39:10.005Z,3.95
2023-04-18T09:41:12.628Z,4.22
2023-04-18T09:43:21.317Z,3.75
2023-04-18T09:45:24.061Z,3.65
2023-04-18T09:47:27.484Z,4.00
2023-04-18T09:49:29.175Z,3.90
2023-04-18T09:51:35.195Z,3.63
2023-04-18T09:53:47.652Z,3.30
2023-04-18T09:55:57.643Z,3.83
2023-04-18T09:58:00.749Z,4.05
2023-04-18T10:00:08.670Z,3.90
2023-04-18T10:02:18.480Z,3.78
2023-04-18T10:04:20.541Z,3.47
2023-04-18T10:06:22.221Z,3.85
2023-04-18T10:08:26.165Z,4.25
2023-04-18T10:10:27.661Z,4.30
2023-04-18T10:12:29.561Z,4.20
2023-04-18T10:14:33.942Z,4.25
2023-04-18T10:16:36.537Z,4.30
2023-04-18T10:18:38.258Z,4.25
2023-04-18T10:20:41.437Z,4.70
2023-04-18T10:22:43.795Z,4.43
2023-04-18T10:24:49.553Z,3.92
2023-04-18T10:26:51.256Z,4.35
2023-04-18T10:28:57.914Z,3.88
2023-04-18T10:31:04.016Z,4.13
2023-04-18T10:33:32.128Z,4.78
2023-04-18T10:35:35.816Z,4.35
2023-04-18T10:37:53.377Z,4.05
2023-04-18T10:40:02.799Z,4.20
2023-04-18T10:42:06.970Z,4.38
2023-04-18T10:44:08.908Z,5.05
2023-04-18T10:46:23.896Z,4.47
2023-04-18T10:48:30.334Z,4.60
2023-04-18T10:50:32.033Z,4.70
2023-04-18T10:52:34.086Z,4.80
2023-04-18T10:54:38.995Z,5.25
2023-04-18T10:56:51.085Z,4.82
2023-04-18T10:58:53.301Z,5.25
2023-04-18T11:00:55.227Z,5.15
2023-04-18T11:02:58.791Z,4.85
2023-04-18T11:05:02.203Z,4.57
2023-04-18T11:07:06.415Z,5.20
2023-04-18T11:09:14.319Z,4.82
2023-04-18T11:11:16.100Z,5.35
2023-04-18T11:13:17.511Z,5.07
2023-04-18T11:15:22.169Z,5.10
2023-04-18T11:17:27.718Z,5.05
2023-04-18T11:19:29.437Z,5.00
2023-04-18T11:21:32.083Z,5.60
2023-04-18T11:23:33.759Z,5.47
2023-04-18T11:25:40.548Z,5.30
2023-04-18T11:27:43.748Z,5.00
2023-04-18T11:29:45.261Z,4.70
2023-04-18T11:31:55.963Z,5.00
2023-04-18T11:33:59.485Z,5.10
2023-04-18T11:36:01.522Z,5.35
2023-04-18T11:38:03.537Z,4.68
2023-04-18T11:40:09.123Z,5.72
2023-04-18T11:42:10.644Z,5.07
2023-04-18T11:44:12.336Z,5.30
2023-04-18T11:46:13.969Z,5.35
2023-04-18T11:48:17.022Z,6.00
2023-04-18T11:50:18.577Z,6.03
2023-04-18T11:52:20.007Z,6.28
2023-04-18T11:54:42.407Z,5.88
2023-04-18T11:56:48.643Z,5.57
2023-04-18T11:58:50.410Z,5.78
2023-04-18T12:00:53.729Z,5.18
2023-04-18T12:02:55.419Z,5.50
2023-04-18T12:05:00.167Z,5.13
2023-04-18T12:07:02.656Z,5.57
2023-04-18T12:09:05.556Z,5.13
2023-04-18T12:11:07.102Z,5.68
2023-04-18T12:13:08.979Z,4.72
2023-04-18T12:15:16.247Z,4.53
2023-04-18T12:17:17.748Z,4.50
2023-04-18T12:19:22.574Z,4.68
2023-04-18T12:21:27.065Z,4.18
2023-04-18T12:23:40.101Z,4.13
2023-04-18T12:25:41.945Z,4.55
2023-04-18T12:28:07.622Z,4.22
2023-04-18T12:30:12.020Z,4.82
2023-04-18T12:32:13.558Z,4.47
2023-04-18T12:34:21.075Z,4.78
2023-04-18T12:36:23.556Z,4.82
2023-04-18T12:38:25.206Z,4.65
2023-04-18T12:40:33.330Z,4.97
2023-04-18T12:42:34.930Z,4.35
2023-04-18T12:44:36.484Z,4.65
2023-04-18T12:46:40.680Z,5.10
2023-04-18T12:48:42.427Z,4.47
2023-04-18T12:50:49.380Z,5.13
2023-04-18T12:52:53.496Z,5.00
2023-04-18T12:54:56.469Z,5.32
2023-04-18T12:56:58.255Z,4.55
2023-04-18T12:58:59.684Z,4.95
2023-04-18T13:01:01.723Z,5.03
2023-04-18T13:03:03.568Z,5.13
2023-04-18T13:05:10.017Z,4.90
2023-04-18T13:07:12.001Z,4.78
2023-04-18T13:09:13.656Z,4.40
2023-04-18T13:11:15.430Z,4.63
2023-04-18T13:13:16.893Z,4.60
2023-04-18T13:15:19.175Z,4.63
2023-04-18T13:17:20.763Z,4.43
2023-04-18T13:19:22.466Z,4.68
2023-04-18T13:21:25.626Z,4.60
2023-04-18T13:23:27.285Z,4.30
2023-04-18T13:25:28.863Z,4.40
2023-04-18T13:27:30.450Z,4.68
2023-04-18T13:29:31.984Z,3.92
2023-04-18T13:31:33.439Z,4.22
2023-04-18T13:33:35.071Z,4.50
2023-04-18T13:35:36.991Z,5.03
2023-04-18T13:37:38.627Z,4.80
2023-04-18T13:39:46.157Z,5.03
2023-04-18T13:41:47.675Z,5.72
2023-04-18T13:43:49.347Z,5.57
2023-04-18T13:45:53.983Z,5.25
2023-04-18T13:47:55.975Z,4.85
2023-04-18T13:49:57.862Z,4.82
2023-04-18T13:51:59.703Z,5.00
2023-04-18T13:54:03.629Z,4.65
2023-04-18T13:56:05.901Z,4.93
2023-04-18T13:58:08.671Z,4.85
2023-04-18T14:00:13.828Z,4.93
2023-04-18T14:02:15.740Z,5.32
2023-04-18T14:04:17.548Z,5.03
2023-04-18T14:06:19.218Z,5.38
2023-04-18T14:08:20.963Z,5.47
2023-04-18T14:10:24.805Z,5.35
2023-04-18T14:12:26.367Z,5.60
2023-04-18T14:14:27.899Z,5.57
2023-04-18T14:16:33.568Z,5.95
2023-04-18T14:18:35.542Z,5.40
2023-04-18T14:20:37.142Z,4.80
2023-04-18T14:22:38.649Z,4.90
2023-04-18T14:24:40.190Z,5.28
2023-04-18T14:26:41.794Z,5.22
2023-04-18T14:28:43.362Z,5.70
2023-04-18T14:30:44.964Z,5.00
2023-04-18T14:32:52.679Z,5.07
2023-04-18T14:34:54.257Z,4.72
2023-04-18T14:36:55.768Z,5.50
2023-04-18T14:38:59.921Z,6.55
2023-04-18T14:41:03.375Z,6.22
2023-04-18T14:43:04.848Z,6.07
2023-04-18T14:45:08.346Z,6.18
2023-04-18T14:47:10.067Z,6.20
2023-04-18T14:49:11.645Z,6.70
2023-04-18T14:51:15.467Z,6.32
2023-04-18T14:53:16.971Z,5.80
2023-04-18T14:55:21.602Z,6.10
2023-04-18T14:57:23.103Z,5.40
2023-04-18T14:59:27.917Z,5.72
2023-04-18T15:01:29.563Z,5.50
2023-04-18T15:03:31.513Z,5.90
2023-04-18T15:05:34.876Z,5.00
2023-04-18T15:07:37.795Z,5.70
2023-04-18T15:09:39.566Z,5.60
2023-04-18T15:11:41.209Z,5.63
2023-04-18T15:13:42.677Z,5.00
2023-04-18T15:15:51.494Z,5.43
2023-04-18T15:17:53.054Z,5.70
2023-04-18T15:19:54.611Z,5.78
2023-04-18T15:21:56.431Z,5.75
2023-04-18T15:23:58.961Z,5.25
2023-04-18T15:26:01.277Z,5.50
2023-04-18T15:28:02.778Z,5.68
2023-04-18T15:30:04.771Z,5.07
2023-04-18T15:32:06.446Z,5.63
2023-04-18T15:34:08.173Z,5.30
2023-04-18T15:36:10.036Z,5.45
2023-04-18T15:38:11.866Z,5.85
2023-04-18T15:40:16.204Z,5.78
2023-04-18T15:42:17.724Z,5.97
2023-04-18T15:44:19.422Z,5.43
2023-04-18T15:46:20.898Z,6.22
2023-04-18T15:48:22.580Z,5.43
2023-04-18T15:50:33.961Z,5.88
2023-04-18T15:52:36.260Z,5.47
2023-04-18T15:54:41.556Z,5.47
2023-04-18T15:56:44.795Z,5.22
2023-04-18T15:58:46.502Z,6.13
2023-04-18T16:00:49.997Z,6.03
2023-04-18T16:02:57.350Z,5.57
2023-04-18T16:05:00.187Z,6.35
2023-04-18T16:07:01.635Z,6.05
2023-04-18T16:09:04.169Z,5.90
2023-04-18T16:11:07.171Z,6.15
2023-04-18T16:13:17.817Z,6.72
2023-04-18T16:15:19.813Z,6.38
2023-04-18T16:17:21.244Z,6.60
2023-04-18T16:19:26.392Z,6.78
2023-04-18T16:21:28.275Z,6.85
2023-04-18T16:23:31.836Z,6.63
2023-04-18T16:25:33.376Z,6.68
2023-04-18T16:27:37.586Z,6.68
2023-04-18T16:29:39.137Z,6.28
2023-04-18T16:31:41.469Z,7.03
2023-04-18T16:33:45.401Z,6.63
2023-04-18T16:35:46.986Z,7.18
2023-04-18T16:37:48.642Z,7.88
2023-04-18T16:39:50.188Z,9.27
2023-04-18T16:41:51.748Z,9.43
2023-04-18T16:43:53.873Z,8.48
2023-04-18T16:46:00.297Z,8.18
2023-04-18T16:48:01.940Z,8.18
2023-04-18T16:50:03.887Z,7.45
2023-04-18T16:52:05.333Z,7.22
2023-04-18T16:54:06.839Z,7.65
2023-04-18T16:56:09.882Z,7.53
2023-04-18T16:58:11.368Z,7.55
2023-04-18T17:00:14.057Z,7.57
2023-04-18T17:02:15.800Z,8.00
2023-04-18T17:04:17.666Z,7.95
2023-04-18T17:06:19.486Z,7.53
2023-04-18T17:08:20.987Z,7.60
2023-04-18T17:10:22.780Z,8.15
2023-04-18T17:12:24.180Z,7.95
2023-04-18T17:14:25.679Z,8.43
2023-04-18T17:16:27.202Z,7.95
2023-04-18T17:18:29.374Z,7.18
2023-04-18T17:20:30.908Z,7.93
2023-04-18T17:22:32.677Z,8.10
2023-04-18T17:24:34.121Z,9.00
2023-04-18T17:26:38.145Z,8.93
2023-04-18T17:28:40.035Z,8.88
2023-04-18T17:30:44.510Z,8.35
2023-04-18T17:32:46.182Z,8.80
2023-04-18T17:34:47.849Z,9.30
2023-04-18T17:36:49.348Z,8.48
2023-04-18T17:38:51.054Z,7.72
2023-04-18T17:41:02.955Z,8.35
2023-04-18T17:43:04.407Z,7.65
2023-04-18T17:45:07.581Z,8.27
2023-04-18T17:47:09.112Z,7.53
2023-04-18T17:49:11.250Z,7.65
2023-04-18T17:51:12.726Z,7.90
2023-04-18T17:53:14.243Z,7.40
2023-04-18T17:55:15.826Z,7.40
2023-04-18T17:57:17.321Z,7.75
2023-04-18T17:59:18.796Z,7.80
2023-04-18T18:01:22.027Z,7.55
2023-04-18T18:03:23.694Z,6.78
2023-04-18T18:05:26.995Z,7.50
2023-04-18T18:07:30.804Z,7.80
2023-04-18T18:09:32.931Z,7.22
2023-04-18T18:11:34.493Z,7.07
2023-04-18T18:13:36.736Z,7.40
2023-04-18T18:15:41.046Z,8.27
2023-04-18T18:17:44.860Z,7.55
2023-04-18T18:19:46.314Z,7.30
2023-04-18T18:21:47.782Z,7.40
2023-04-18T18:23:49.240Z,8.05
2023-04-18T18:25:53.490Z,8.68
2023-04-18T18:27:54.890Z,8.60
2023-04-18T18:29:59.388Z,7.78
2023-04-18T18:32:00.877Z,8.40
2023-04-18T18:34:02.462Z,8.25
2023-04-18T18:36:07.195Z,8.30
2023-04-18T18:38:08.786Z,7.82
2023-04-18T18:40:10.766Z,7.50
2023-04-18T18:42:12.338Z,8.02
2023-04-18T18:44:13.759Z,8.40
2023-04-18T18:46:16.104Z,8.13
2023-04-18T18:48:17.615Z,7.85
2023-04-18T18:50:19.388Z,7.90
2023-04-18T18:52:21.753Z,8.52
2023-04-18T18:54:23.643Z,9.60
2023-04-18T18:56:25.299Z,9.35
2023-04-18T18:58:27.328Z,9.40
2023-04-18T19:00:31.920Z,9.68
2023-04-18T19:02:33.911Z,9.55
2023-04-18T19:04:36.871Z,9.80
2023-04-18T19:06:38.648Z,9.45
2023-04-18T19:08:40.505Z,10.20
2023-04-18T19:10:42.119Z,10.57
2023-04-18T19:12:43.661Z,9.32
2023-04-18T19:14:46.824Z,9.70
2023-04-18T19:16:48.308Z,10.23
2023-04-18T19:18:50.603Z,10.55
2023-04-18T19:20:52.268Z,10.27
2023-04-18T19:22:53.974Z,9.88
2023-04-18T19:25:00.488Z,8.75
2023-04-18T19:27:02.887Z,9.85
2023-04-18T19:29:06.967Z,9.57
2023-04-18T19:31:09.512Z,10.13
2023-04-18T19:33:11.353Z,9.65
2023-04-18T19:35:13.281Z,8.60
2023-04-18T19:37:15.009Z,8.40
2023-04-18T19:39:17.452Z,8.63
2023-04-18T19:41:18.863Z,7.80
2023-04-18T19:43:20.347Z,8.02
2023-04-18T19:45:24.222Z,8.73
2023-04-18T19:47:25.971Z,8.73
2023-04-18T19:49:27.539Z,8.40
2023-04-18T19:51:28.982Z,8.23
2023-04-18T19:53:31.146Z,9.50
2023-04-18T19:55:32.805Z,9.13
2023-04-18T19:57:41.634Z,9.20
2023-04-18T19:59:45.551Z,9.80
2023-04-18T20:01:47.555Z,8.77
2023-04-18T20:03:49.407Z,8.82
2023-04-18T20:05:51.126Z,9.35
2023-04-18T20:07:55.114Z,8.57
2023-04-18T20:09:56.612Z,8.52
2023-04-18T20:12:00.368Z,8.82
2023-04-18T20:14:02.097Z,8.35
2023-04-18T20:16:07.497Z,8.52
2023-04-18T20:18:09.441Z,8.90
2023-04-18T20:20:11.567Z,8.30
2023-04-18T20:22:15.055Z,7.47
2023-04-18T20:24:16.586Z,7.25
2023-04-18T20:26:18.035Z,7.75
2023-04-18T20:28:19.475Z,7.03
2023-04-18T20:30:21.996Z,8.23
2023-04-18T20:32:31.629Z,8.65
2023-04-18T20:34:33.176Z,9.27
2023-04-18T20:36:35.482Z,7.85
2023-04-18T20:38:37.988Z,7.80
2023-04-18T20:40:39.676Z,8.23
2023-04-18T20:42:41.182Z,7.15
2023-04-18T20:44:44.695Z,7.47
2023-04-18T20:46:46.420Z,7.28
2023-04-18T20:48:47.940Z,7.25
2023-04-18T20:50:52.118Z,7.13
2023-04-18T20:52:53.979Z,8.18
2023-04-18T20:54:55.546Z,7.15
2023-04-18T20:56:56.978Z,7.20
2023-04-18T20:58:58.408Z,6.88
2023-04-18T21:01:01.350Z,7.25
2023-04-18T21:03:03.135Z,6.65
2023-04-18T21:05:05.084Z,7.75
2023-04-18T21:07:06.612Z,7.50
2023-04-18T21:09:08.800Z,7.60
2023-04-18T21:11:10.588Z,8.25
2023-04-18T21:13:12.672Z,8.00
2023-04-18T21:15:14.267Z,8.40
2023-04-18T21:17:19.037Z,8.65
2023-04-18T21:19:23.300Z,8.38
2023-04-18T21:21:25.540Z,8.65
2023-04-18T21:23:27.259Z,8.48
2023-04-18T21:25:28.781Z,8.85
2023-04-18T21:27:33.144Z,8.63
2023-04-18T21:30:02.304Z,8.88
2023-04-18T21:32:05.189Z,7.53
2023-04-18T21:34:06.810Z,7.22
2023-04-18T21:36:08.563Z,6.57
2023-04-18T21:38:10.276Z,6.65
2023-04-18T21:40:12.009Z,5.93
2023-04-18T21:42:13.758Z,5.57
2023-04-18T21:44:15.549Z,4.75
2023-04-18T21:46:17.856Z,4.82
2023-04-18T21:48:19.543Z,5.30
2023-04-18T21:50:23.661Z,5.25
2023-04-18T21:52:25.205Z,5.03
2023-04-18T21:54:26.884Z,4.50
2023-04-18T21:56:30.788Z,5.35
2023-04-18T21:58:32.420Z,4.95
2023-04-18T22:00:33.899Z,5.25
2023-04-18T22:02:35.537Z,4.65
2023-04-18T22:04:38.087Z,4.68
2023-04-18T22:06:39.762Z,4.72
2023-04-18T22:08:43.168Z,4.88
2023-04-18T22:10:46.194Z,4.88
2023-04-18T22:12:51.306Z,4.75
2023-04-18T22:14:52.916Z,4.63
2023-04-18T22:16:54.690Z,5.35
2023-04-18T22:18:56.323Z,4.57
2023-04-18T22:20:57.770Z,4.47
2023-04-18T22:23:06.937Z,4.95
2023-04-18T22:25:11.460Z,4.80
2023-04-18T22:27:13.101Z,4.30
2023-04-18T22:29:14.638Z,4.32
2023-04-18T22:31:16.167Z,4.70
2023-04-18T22:33:21.446Z,5.18
2023-04-18T22:35:22.925Z,5.32
2023-04-18T22:37:24.558Z,5.75
2023-04-18T22:39:28.166Z,5.13
2023-04-18T22:41:29.710Z,5.60
2023-04-18T22:43:31.147Z,5.50
2023-04-18T22:45:34.257Z,4.82
2023-04-18T22:47:39.085Z,5.22
2023-04-18T22:49:40.926Z,4.80
2023-04-18T22:51:43.863Z,5.00
2023-04-18T22:53:45.496Z,5.07
2023-04-18T22:55:47.094Z,5.28
2023-04-18T22:57:48.588Z,5.03
2023-04-18T22:59:50.298Z,4.78
2023-04-18T23:01:51.793Z,5.20
2023-04-18T23:03:53.432Z,5.18
2023-04-18T23:05:55.129Z,5.15
2023-04-18T23:07:59.605Z,4.93
2023-04-18T23:10:04.521Z,5.22
2023-04-18T23:12:06.073Z,5.10
2023-04-18T23:14:08.637Z,5.20
2023-04-18T23:16:13.267Z,4.93
2023-04-18T23:18:17.247Z,4.72
2023-04-18T23:20:21.400Z,4.80
2023-04-18T23:22:24.378Z,4.40
2023-04-18T23:24:26.089Z,4.40
2023-04-18T23:26:27.540Z,4.90
2023-04-18T23:28:29.105Z,4.75
2023-04-18T23:30:30.641Z,4.40
2023-04-18T23:32:32.081Z,4.82
2023-04-18T23:34:33.860Z,4.47
2023-04-18T23:36:35.932Z,4.65
2023-04-18T23:38:39.568Z,4.43
2023-04-18T23:40:41.020Z,4.70
2023-04-18T23:42:42.536Z,4.50
2023-04-18T23:44:44.079Z,3.90
2023-04-18T23:46:45.975Z,4.22
2023-04-18T23:48:47.658Z,4.82
2023-04-18T23:50:52.531Z,4.30
2023-04-18T23:52:54.062Z,3.83
2023-04-18T23:54:55.548Z,4.18
2023-04-18T23:56:57.145Z,4.50
2023-04-18T23:58:58.690Z,4.30
